This is the latest recevied weather packets stored in our database for station/object AI9F. If no packets are shown the sender has not sent any weather packets the latest 10 day(s).
| Time | Temp. | Humidity | Pressure | Rain* | Wind** | Luminosity | Snow |
|---|---|---|---|---|---|---|---|
| 1777500494 | 18.33° C | 44% | 1014.8 hPa | 0 mm | - | 345 W/m² | - |
| 1777500189 | 18.33° C | 47% | 1015 hPa | 0 mm | - | 347 W/m² | - |
| 1777499887 | 18.89° C | 46% | 1014.8 hPa | 0 mm | - | 387 W/m² | - |
| 1777499583 | 18.89° C | 44% | 1015 hPa | 0 mm | - | 401 W/m² | - |
| 1777499280 | 18.89° C | 45% | 1014.6 hPa | 0 mm | - | 421 W/m² | - |
| 1777498978 | 18.89° C | 43% | 1015 hPa | 0 mm | - | 441 W/m² | - |
| 1777498674 | 18.33° C | 45% | 1015 hPa | 0 mm | - | 448 W/m² | - |
| 1777498370 | 18.89° C | 46% | 1014.7 hPa | 0 mm | - | 475 W/m² | - |
| 1777498068 | 19.44° C | 42% | 1014.7 hPa | 0 mm | - | 492 W/m² | - |
| 1777497764 | 18.89° C | 44% | 1014.7 hPa | 0 mm | - | 510 W/m² | - |
| 1777497461 | 18.33° C | 47% | 1014.7 hPa | 0 mm | - | 527 W/m² | - |
| 1777497157 | 18.33° C | 46% | 1014.7 hPa | 0 mm | - | 546 W/m² | - |
| 1777496854 | 17.78° C | 48% | 1014.6 hPa | 0 mm | - | 571 W/m² | - |
| 1777496551 | 17.78° C | 47% | 1014.8 hPa | 0 mm | - | 588 W/m² | - |
| 1777496247 | 17.22° C | 52% | 1014.8 hPa | 0 mm | - | 347 W/m² | - |
| 1777495943 | 17.78° C | 50% | 1015.1 hPa | 0 mm | - | 139 W/m² | - |
| 1777495639 | 19.44° C | 44% | 1015 hPa | 0 mm | - | 271 W/m² | - |
| 1777495336 | 18.89° C | 46% | 1015.1 hPa | 0 mm | - | 696 W/m² | - |
| 1777495033 | 18.89° C | 46% | 1015.1 hPa | 0 mm | - | 680 W/m² | - |
| 1777494730 | 18.89° C | 47% | 1015.4 hPa | 0 mm | - | 598 W/m² | - |
| 1777494427 | 19.44° C | 49% | 1015.2 hPa | 0 mm | - | 685 W/m² | - |
| 1777494123 | 19.44° C | 48% | 1015.1 hPa | 0 mm | - | 698 W/m² | - |
| 1777493821 | 18.89° C | 49% | 1015.1 hPa | 0 mm | - | 713 W/m² | - |
| 1777493519 | 18.89° C | 51% | 1015.4 hPa | 0 mm | - | 715 W/m² | - |
| 1777493216 | 18.89° C | 47% | 1015.3 hPa | 0 mm | - | 768 W/m² | - |
* Rain latest hour (hover to see other rain measurements)
** Current wind speed in m/s (hover to see current wind gust speed)